Time;durP1;ratioP1;P1;durP2;ratioP2;P2;SDS_P1;SDS_P2;PMS_P1;PMS_P2;Temp;Humidity;BMP_temperature;BMP_pressure;BME280_temperature;BME280_humidity;BME280_pressure;Samples;Min_cycle;Max_cycle;Signal;HPM_P1;HPM_P2
2024/01/17 00:00:05;;;;;;;;;;;0.00;99.90;;;;;;5115903;27;20006;-31
2024/01/17 00:02:31;;;;;;;;;;;-0.10;99.90;;;;;;5115614;27;19923;-32
2024/01/17 00:04:58;;;;;;;;;;;0.00;99.90;;;;;;5133450;27;19927;-32
2024/01/17 00:07:25;;;;;;;;;;;-0.10;99.90;;;;;;5115310;27;19985;-32
2024/01/17 00:09:52;;;;;;;;;;;-0.10;99.90;;;;;;5115560;27;20006;-32
2024/01/17 00:12:20;;;;;;;;;;;-0.10;99.90;;;;;;5115536;27;20358;-32
2024/01/17 00:14:46;;;;;;;;;;;-0.10;99.90;;;;;;5133749;27;20380;-32
2024/01/17 00:17:14;;;;;;;;;;;-0.10;99.90;;;;;;5115685;27;20415;-31
2024/01/17 00:19:40;;;;;;;;;;;-0.10;99.90;;;;;;5114703;27;19946;-31
2024/01/17 00:22:07;;;;;;;;;;;-0.10;99.90;;;;;;5116037;27;20430;-31
2024/01/17 00:24:33;;;;;;;;;;;-0.10;99.90;;;;;;5114416;27;20021;-32
2024/01/17 00:27:00;;;;;;;;;;;-0.10;99.90;;;;;;5114615;27;20332;-32
2024/01/17 00:29:28;;;;;;;;;;;-0.10;99.90;;;;;;5115755;27;19928;-33
2024/01/17 00:31:55;;;;;;;;;;;-0.10;99.90;;;;;;5115544;27;20367;-31
2024/01/17 00:34:21;;;;;;;;;;;-0.10;99.90;;;;;;5115858;27;19927;-32
2024/01/17 00:36:48;;;;;;;;;;;-0.10;99.90;;;;;;5132724;27;20039;-32
2024/01/17 00:39:16;;;;;;;;;;;-0.10;99.90;;;;;;5115376;27;19966;-32
2024/01/17 00:41:43;;;;;;;;;;;-0.10;99.90;;;;;;5115945;27;19978;-32
2024/01/17 00:44:14;;;;;;;;;;;-0.20;99.90;;;;;;5133824;27;19927;-32
2024/01/17 00:46:42;;;;;;;;;;;-0.10;99.90;;;;;;5115417;27;20356;-31
2024/01/17 00:49:09;;;;;;;;;;;-0.10;99.90;;;;;;5114903;27;19923;-31
2024/01/17 00:51:36;;;;;;;;;;;-0.10;99.90;;;;;;5114390;27;19934;-33
2024/01/17 00:54:03;;;;;;;;;;;-0.20;99.90;;;;;;5115589;27;19923;-32
2024/01/17 00:56:32;;;;;;;;;;;-0.20;99.90;;;;;;5115049;27;20259;-31
2024/01/17 00:58:58;;;;;;;;;;;-0.20;99.90;;;;;;5114839;27;19931;-31
2024/01/17 01:01:25;;;;;;;;;;;-0.20;99.90;;;;;;5114948;27;19953;-33
2024/01/17 01:03:53;;;;;;;;;;;-0.20;99.90;;;;;;5115168;27;19928;-31
2024/01/17 01:06:20;;;;;;;;;;;-0.20;99.90;;;;;;5114424;27;19923;-32
2024/01/17 01:08:47;;;;;;;;;;;-0.20;99.90;;;;;;5114104;28;19927;-32
2024/01/17 01:11:13;;;;;;;;;;;-0.20;99.90;;;;;;5115067;28;19923;-32
2024/01/17 01:13:40;;;;;;;;;;;-0.20;99.90;;;;;;5114880;28;20318;-32
2024/01/17 01:16:09;;;;;;;;;;;-0.30;99.90;;;;;;5133383;27;19957;-31
2024/01/17 01:18:36;;;;;;;;;;;-0.30;99.90;;;;;;5109796;28;20001;-32
2024/01/17 01:21:04;;;;;;;;;;;-0.30;99.90;;;;;;5133234;28;19924;-32
2024/01/17 01:23:31;;;;;;;;;;;-0.30;99.90;;;;;;5115315;28;19924;-32
2024/01/17 01:25:57;;;;;;;;;;;-0.30;99.90;;;;;;5133245;28;19927;-32
2024/01/17 01:28:24;;;;;;;;;;;-0.30;99.90;;;;;;5115109;28;20447;-30
2024/01/17 01:30:51;;;;;;;;;;;-0.30;99.90;;;;;;5115000;28;19923;-31
2024/01/17 01:33:17;;;;;;;;;;;-0.30;99.90;;;;;;5118923;27;20286;-32
2024/01/17 01:35:44;;;;;;;;;;;-0.20;99.90;;;;;;5118434;27;19924;-32
2024/01/17 01:38:12;;;;;;;;;;;-0.30;99.90;;;;;;5119401;27;19923;-32
2024/01/17 01:40:39;;;;;;;;;;;-0.30;99.90;;;;;;5137381;27;20336;-32
2024/01/17 01:43:17;;;;;;;;;;;-0.30;99.90;;;;;;5118871;27;19923;-31
2024/01/17 01:45:44;;;;;;;;;;;-0.30;99.90;;;;;;5118330;27;20374;-32
2024/01/17 01:48:10;;;;;;;;;;;-0.30;99.90;;;;;;5118272;27;19923;-31
2024/01/17 01:50:37;;;;;;;;;;;-0.30;99.90;;;;;;5118800;27;19928;-32
2024/01/17 01:53:04;;;;;;;;;;;-0.30;99.90;;;;;;5118771;27;19924;-31
2024/01/17 01:55:32;;;;;;;;;;;-0.40;99.90;;;;;;5119082;27;20329;-31
2024/01/17 01:57:59;;;;;;;;;;;-0.30;99.90;;;;;;5117084;27;19924;-34
2024/01/17 02:00:25;;;;;;;;;;;-0.40;99.90;;;;;;5136699;27;20398;-32
2024/01/17 02:02:53;;;;;;;;;;;-0.40;99.90;;;;;;5118086;27;19928;-31
2024/01/17 02:05:20;;;;;;;;;;;-0.40;99.90;;;;;;5118672;27;19968;-32
2024/01/17 02:07:47;;;;;;;;;;;-0.40;99.90;;;;;;5118470;27;20243;-31
2024/01/17 02:10:13;;;;;;;;;;;-0.40;99.90;;;;;;5134466;27;19924;-31
2024/01/17 02:12:44;;;;;;;;;;;-0.40;99.90;;;;;;5136528;27;20302;-33
2024/01/17 02:15:11;;;;;;;;;;;-0.40;99.90;;;;;;5118380;27;19971;-33
2024/01/17 02:17:37;;;;;;;;;;;-0.40;99.90;;;;;;5136492;27;20348;-32
2024/01/17 02:20:05;;;;;;;;;;;-0.40;99.90;;;;;;5136738;27;19976;-32
2024/01/17 02:22:31;;;;;;;;;;;-0.40;99.90;;;;;;5118801;27;19924;-32
2024/01/17 02:25:04;;;;;;;;;;;-0.40;99.90;;;;;;5117317;27;20497;-32
2024/01/17 02:27:31;;;;;;;;;;;-0.40;99.90;;;;;;5117976;27;19923;-33
2024/01/17 02:29:57;;;;;;;;;;;-0.40;99.90;;;;;;5118332;27;19923;-32
2024/01/17 02:32:24;;;;;;;;;;;-0.40;99.90;;;;;;5117999;27;19923;-33
2024/01/17 02:34:51;;;;;;;;;;;-0.40;99.90;;;;;;5136301;27;20388;-32
2024/01/17 02:37:18;;;;;;;;;;;-0.40;99.90;;;;;;5116462;27;19931;-32
2024/01/17 02:39:44;;;;;;;;;;;-0.40;99.90;;;;;;5117786;27;19923;-32
2024/01/17 02:42:12;;;;;;;;;;;-0.50;99.90;;;;;;5117558;27;20321;-30
2024/01/17 02:44:39;;;;;;;;;;;-0.40;99.90;;;;;;5117756;27;19923;-32
2024/01/17 02:47:05;;;;;;;;;;;-0.40;99.90;;;;;;5117688;27;19923;-32
2024/01/17 02:49:32;;;;;;;;;;;-0.50;99.90;;;;;;5118147;27;20272;-32
2024/01/17 02:51:59;;;;;;;;;;;-0.40;99.90;;;;;;5115356;27;20152;-32
2024/01/17 02:54:25;;;;;;;;;;;-0.40;99.90;;;;;;5117504;27;19935;-31
2024/01/17 02:56:52;;;;;;;;;;;-0.50;99.90;;;;;;5117413;27;19983;-32
2024/01/17 02:59:20;;;;;;;;;;;-0.50;99.90;;;;;;5135370;27;19923;-32
2024/01/17 03:01:47;;;;;;;;;;;-0.50;99.90;;;;;;5117781;27;19923;-32
2024/01/17 03:04:13;;;;;;;;;;;-0.50;99.90;;;;;;5117466;27;19923;-33
2024/01/17 03:06:40;;;;;;;;;;;-0.50;99.90;;;;;;5116732;27;20014;-32
2024/01/17 03:09:06;;;;;;;;;;;-0.50;99.90;;;;;;5117175;27;19924;-32
2024/01/17 03:11:33;;;;;;;;;;;-0.50;99.90;;;;;;5135576;27;19976;-33
2024/01/17 03:14:01;;;;;;;;;;;-0.50;99.90;;;;;;5117263;27;19973;-34
2024/01/17 03:16:29;;;;;;;;;;;-0.50;99.90;;;;;;5117320;27;19931;-32
2024/01/17 03:18:55;;;;;;;;;;;-0.50;99.90;;;;;;5117537;27;19924;-32
2024/01/17 03:21:22;;;;;;;;;;;-0.50;99.90;;;;;;5116681;27;20442;-33
2024/01/17 03:23:49;;;;;;;;;;;-0.50;99.90;;;;;;5135432;27;19927;-33
2024/01/17 03:26:16;;;;;;;;;;;-0.50;99.90;;;;;;5116999;27;20298;-32
2024/01/17 03:28:44;;;;;;;;;;;-0.60;99.90;;;;;;5135501;27;19976;-32
2024/01/17 03:31:10;;;;;;;;;;;-0.50;99.90;;;;;;5116931;27;19976;-31
2024/01/17 03:33:38;;;;;;;;;;;-0.50;99.90;;;;;;5135369;27;19924;-31
2024/01/17 03:36:05;;;;;;;;;;;-0.50;99.90;;;;;;5116237;27;19994;-33
2024/01/17 03:38:32;;;;;;;;;;;-0.60;99.90;;;;;;5117027;27;20391;-32
2024/01/17 03:41:00;;;;;;;;;;;-0.40;99.90;;;;;;5116495;27;19964;-32
2024/01/17 03:43:27;;;;;;;;;;;-0.50;99.90;;;;;;5117629;27;19923;-32
2024/01/17 03:45:57;;;;;;;;;;;-0.50;99.90;;;;;;5116669;27;20025;-32
2024/01/17 03:48:23;;;;;;;;;;;-0.50;99.90;;;;;;5116630;27;20324;-32
2024/01/17 03:50:51;;;;;;;;;;;-0.50;99.90;;;;;;5115529;27;19923;-33
2024/01/17 03:53:18;;;;;;;;;;;-0.50;99.90;;;;;;5116765;27;19927;-32
2024/01/17 03:55:44;;;;;;;;;;;-0.60;99.90;;;;;;5133784;27;19968;-32
2024/01/17 03:58:11;;;;;;;;;;;-0.60;99.90;;;;;;5104136;28;19928;-33
2024/01/17 04:00:41;;;;;;;;;;;-0.60;99.90;;;;;;5096188;28;19931;-32
2024/01/17 04:03:11;;;;;;;;;;;-0.60;99.90;;;;;;5103685;27;19928;-33
2024/01/17 04:05:37;;;;;;;;;;;-0.60;99.90;;;;;;5133880;27;19974;-32
2024/01/17 04:08:06;;;;;;;;;;;-0.60;99.90;;;;;;5116192;27;19923;-32
2024/01/17 04:10:32;;;;;;;;;;;-0.60;99.90;;;;;;5116388;27;19924;-32
2024/01/17 04:13:00;;;;;;;;;;;-0.60;99.90;;;;;;5134639;27;19931;-32
2024/01/17 04:15:26;;;;;;;;;;;-0.60;99.90;;;;;;5115935;27;19930;-32
2024/01/17 04:17:53;;;;;;;;;;;-0.60;99.90;;;;;;5115611;27;19923;-33
2024/01/17 04:20:20;;;;;;;;;;;-0.70;99.90;;;;;;5133862;27;19945;-33
2024/01/17 04:22:46;;;;;;;;;;;-0.70;99.90;;;;;;5116097;27;19930;-31
2024/01/17 04:25:14;;;;;;;;;;;-0.70;99.90;;;;;;5115686;27;19923;-31
2024/01/17 04:27:41;;;;;;;;;;;-0.70;99.90;;;;;;5116129;27;20395;-31
2024/01/17 04:30:11;;;;;;;;;;;-0.70;99.90;;;;;;5116180;27;19972;-31
2024/01/17 04:32:38;;;;;;;;;;;-0.80;99.90;;;;;;5115639;27;19927;-32
2024/01/17 04:35:05;;;;;;;;;;;-0.70;99.90;;;;;;5114505;27;19987;-32
2024/01/17 04:37:31;;;;;;;;;;;-0.80;99.90;;;;;;5115724;27;19924;-33
2024/01/17 04:39:58;;;;;;;;;;;-0.80;99.90;;;;;;5115376;27;19932;-32
2024/01/17 04:42:26;;;;;;;;;;;-0.80;99.90;;;;;;5115185;27;20031;-31
2024/01/17 04:44:52;;;;;;;;;;;-0.80;99.90;;;;;;5133239;27;20336;-32
2024/01/17 04:47:19;;;;;;;;;;;-0.80;99.90;;;;;;5115529;27;19928;-32
2024/01/17 04:49:46;;;;;;;;;;;-0.80;99.90;;;;;;5133071;27;19924;-30
2024/01/17 04:52:15;;;;;;;;;;;-0.80;99.90;;;;;;5115777;27;19929;-32
2024/01/17 04:54:42;;;;;;;;;;;-0.80;99.90;;;;;;5115560;27;20014;-31
2024/01/17 04:57:09;;;;;;;;;;;-0.80;99.90;;;;;;5115408;27;19931;-32
2024/01/17 04:59:37;;;;;;;;;;;-0.80;99.90;;;;;;5114970;27;20007;-32
2024/01/17 05:02:04;;;;;;;;;;;-0.70;99.90;;;;;;5113712;27;19980;-32
2024/01/17 05:04:31;;;;;;;;;;;-0.80;99.90;;;;;;5115423;27;20060;-31
2024/01/17 05:06:58;;;;;;;;;;;-0.70;99.90;;;;;;5114686;27;19979;-33
2024/01/17 05:09:24;;;;;;;;;;;-0.70;99.90;;;;;;5115125;27;19927;-33
2024/01/17 05:11:51;;;;;;;;;;;-0.80;99.90;;;;;;5115494;28;20299;-32
2024/01/17 05:14:17;;;;;;;;;;;-0.80;99.90;;;;;;5132956;27;19968;-33
2024/01/17 05:16:45;;;;;;;;;;;-0.70;99.90;;;;;;5114771;28;19975;-33
2024/01/17 05:19:12;;;;;;;;;;;-0.70;99.90;;;;;;5132500;28;19923;-32
2024/01/17 05:21:39;;;;;;;;;;;-0.70;99.90;;;;;;5115088;28;19923;-33
2024/01/17 05:24:05;;;;;;;;;;;-0.70;99.90;;;;;;5110867;28;19928;-32
2024/01/17 05:26:32;;;;;;;;;;;-0.60;99.90;;;;;;5111517;28;19923;-31
2024/01/17 05:28:59;;;;;;;;;;;-0.70;99.90;;;;;;5131885;28;20043;-32
2024/01/17 05:31:25;;;;;;;;;;;-0.70;99.90;;;;;;5126686;28;19923;-32
2024/01/17 05:33:53;;;;;;;;;;;-0.80;99.90;;;;;;5113484;28;19923;-32
2024/01/17 05:36:20;;;;;;;;;;;-0.70;99.90;;;;;;5131997;28;20294;-31
2024/01/17 05:38:47;;;;;;;;;;;-0.70;99.90;;;;;;5113732;28;19949;-31
2024/01/17 05:41:14;;;;;;;;;;;-0.80;99.90;;;;;;5111522;28;19932;-32
2024/01/17 05:43:40;;;;;;;;;;;-0.80;99.90;;;;;;5114100;28;19927;-31
2024/01/17 05:46:08;;;;;;;;;;;-0.80;99.90;;;;;;5109222;28;19966;-32
2024/01/17 05:48:35;;;;;;;;;;;-0.80;99.90;;;;;;5128209;28;20285;-33
2024/01/17 05:51:05;;;;;;;;;;;-0.80;99.90;;;;;;5110737;28;19935;-32
2024/01/17 05:53:32;;;;;;;;;;;-0.80;99.90;;;;;;5113060;28;21027;-32
2024/01/17 05:55:58;;;;;;;;;;;-0.80;99.90;;;;;;5110556;28;19928;-31
2024/01/17 05:58:25;;;;;;;;;;;-0.80;99.90;;;;;;5112201;28;20379;-32
2024/01/17 06:00:52;;;;;;;;;;;-0.80;99.90;;;;;;5130152;28;20295;-32
2024/01/17 06:03:18;;;;;;;;;;;-0.80;99.90;;;;;;5132410;28;19928;-31
2024/01/17 06:05:45;;;;;;;;;;;-0.80;99.90;;;;;;5131368;28;19923;-32
2024/01/17 06:08:13;;;;;;;;;;;-0.80;99.90;;;;;;5110577;28;19927;-32
2024/01/17 06:10:40;;;;;;;;;;;-0.70;99.90;;;;;;5105659;28;19924;-32
2024/01/17 06:13:08;;;;;;;;;;;-0.50;99.90;;;;;;5108759;28;19924;-32
2024/01/17 06:15:34;;;;;;;;;;;-0.80;99.90;;;;;;5112214;28;19930;-32
2024/01/17 06:18:01;;;;;;;;;;;-0.80;99.90;;;;;;5113912;27;19976;-32
2024/01/17 06:20:28;;;;;;;;;;;-0.80;99.90;;;;;;5136021;27;20340;-32
2024/01/17 06:22:54;;;;;;;;;;;-0.80;99.90;;;;;;5117241;27;21262;-32
2024/01/17 06:25:22;;;;;;;;;;;-0.80;99.90;;;;;;5116160;27;19966;-33
2024/01/17 06:27:49;;;;;;;;;;;-0.80;99.90;;;;;;5117725;27;19949;-32
2024/01/17 06:30:16;;;;;;;;;;;-0.80;99.90;;;;;;5135845;27;19923;-31
2024/01/17 06:32:43;;;;;;;;;;;-0.80;99.90;;;;;;5117698;27;19923;-33
2024/01/17 06:35:11;;;;;;;;;;;-0.90;99.90;;;;;;5117744;27;19924;-32
2024/01/17 06:37:38;;;;;;;;;;;-0.80;99.90;;;;;;5116147;27;20424;-32
2024/01/17 06:40:05;;;;;;;;;;;-0.90;99.90;;;;;;5117569;27;19923;-31
2024/01/17 06:42:33;;;;;;;;;;;-0.80;99.90;;;;;;5136164;27;20397;-33
2024/01/17 06:45:00;;;;;;;;;;;-0.90;99.90;;;;;;5116956;27;20432;-32
2024/01/17 06:47:27;;;;;;;;;;;-0.90;99.90;;;;;;5117405;27;19924;-31
2024/01/17 06:49:53;;;;;;;;;;;-1.00;99.90;;;;;;5116621;27;20021;-31
2024/01/17 06:52:20;;;;;;;;;;;-1.00;99.90;;;;;;5116354;27;20261;-33
2024/01/17 06:54:46;;;;;;;;;;;-1.10;99.90;;;;;;5135145;27;20411;-32
2024/01/17 06:57:12;;;;;;;;;;;-1.10;99.90;;;;;;5136140;27;19924;-32
2024/01/17 06:59:42;;;;;;;;;;;-1.20;99.90;;;;;;5134808;27;19927;-31
2024/01/17 07:02:08;;;;;;;;;;;-1.20;99.90;;;;;;5116864;27;20017;-32
2024/01/17 07:04:35;;;;;;;;;;;-1.20;99.90;;;;;;5117614;27;19924;-32
2024/01/17 07:07:02;;;;;;;;;;;-1.30;99.90;;;;;;5115761;27;20367;-32
2024/01/17 07:09:28;;;;;;;;;;;-1.30;99.90;;;;;;5134957;27;19927;-32
2024/01/17 07:11:55;;;;;;;;;;;-1.30;99.90;;;;;;5111989;27;19927;-32
2024/01/17 07:14:22;;;;;;;;;;;-1.40;99.90;;;;;;5117089;27;20018;-32
2024/01/17 07:16:50;;;;;;;;;;;-1.40;99.90;;;;;;5134520;27;20341;-32
2024/01/17 07:19:16;;;;;;;;;;;-1.40;99.90;;;;;;5115916;27;19928;-31
2024/01/17 07:21:43;;;;;;;;;;;-1.50;99.90;;;;;;5114121;27;19976;-31
2024/01/17 07:24:10;;;;;;;;;;;-1.50;99.90;;;;;;5115676;27;20328;-32
2024/01/17 07:26:37;;;;;;;;;;;-1.50;99.90;;;;;;5116256;27;19930;-31
2024/01/17 07:29:03;;;;;;;;;;;-1.50;99.90;;;;;;5114757;28;19935;-32
2024/01/17 07:31:30;;;;;;;;;;;-1.50;99.90;;;;;;5116167;27;19968;-32
2024/01/17 07:33:58;;;;;;;;;;;-1.60;99.90;;;;;;5102383;28;19977;-32
2024/01/17 07:36:28;;;;;;;;;;;-1.60;99.90;;;;;;5133789;27;19930;-32
2024/01/17 07:38:54;;;;;;;;;;;-1.60;99.90;;;;;;5114345;27;19924;-31
2024/01/17 07:41:21;;;;;;;;;;;-1.70;99.90;;;;;;5126149;27;20315;-31
2024/01/17 07:43:48;;;;;;;;;;;-1.70;99.90;;;;;;5109575;27;19935;-32
2024/01/17 07:46:15;;;;;;;;;;;-1.70;99.90;;;;;;5113828;27;19927;-32
2024/01/17 07:48:41;;;;;;;;;;;-1.70;99.90;;;;;;5134407;27;19923;-31
2024/01/17 07:51:09;;;;;;;;;;;-1.70;99.90;;;;;;5132912;27;20367;-32
2024/01/17 07:53:36;;;;;;;;;;;-1.70;99.90;;;;;;5116569;27;19923;-32
2024/01/17 07:56:04;;;;;;;;;;;-1.70;99.90;;;;;;5134609;27;19923;-32
2024/01/17 07:58:30;;;;;;;;;;;-1.80;99.90;;;;;;5116079;27;19974;-31
2024/01/17 08:00:57;;;;;;;;;;;-1.80;99.90;;;;;;5134284;27;19927;-31
2024/01/17 08:03:24;;;;;;;;;;;-1.80;99.90;;;;;;5116201;27;19923;-32
2024/01/17 08:05:50;;;;;;;;;;;-1.80;99.90;;;;;;5114485;27;19923;-31
2024/01/17 08:08:18;;;;;;;;;;;-1.80;99.90;;;;;;5116300;27;19964;-31
2024/01/17 08:10:45;;;;;;;;;;;-1.80;99.90;;;;;;5115556;27;19923;-31
2024/01/17 08:13:12;;;;;;;;;;;-1.80;99.90;;;;;;5133263;27;20322;-32
2024/01/17 08:15:39;;;;;;;;;;;-1.80;99.90;;;;;;5115404;27;19928;-31
2024/01/17 08:18:05;;;;;;;;;;;-1.80;99.90;;;;;;5115406;27;20306;-31
2024/01/17 08:20:32;;;;;;;;;;;-1.80;99.90;;;;;;5114399;27;19959;-32
2024/01/17 08:22:59;;;;;;;;;;;-1.70;99.90;;;;;;5115294;27;20383;-31
2024/01/17 08:25:27;;;;;;;;;;;-1.80;99.90;;;;;;5114527;27;19927;-31
2024/01/17 08:27:54;;;;;;;;;;;-1.80;99.90;;;;;;5115659;27;19962;-31
2024/01/17 08:30:20;;;;;;;;;;;-1.70;99.90;;;;;;5115613;27;19923;-32
2024/01/17 08:32:47;;;;;;;;;;;-1.80;99.90;;;;;;5115445;27;19923;-31
2024/01/17 08:35:14;;;;;;;;;;;-1.70;99.90;;;;;;5114437;27;19924;-31
2024/01/17 08:37:41;;;;;;;;;;;-1.80;99.90;;;;;;5115353;27;20399;-31
2024/01/17 08:40:08;;;;;;;;;;;-1.80;99.90;;;;;;5133110;27;19935;-31
2024/01/17 08:42:36;;;;;;;;;;;-1.80;99.90;;;;;;5115355;27;19923;-32
2024/01/17 08:45:03;;;;;;;;;;;-1.80;99.90;;;;;;5133226;27;19984;-32
2024/01/17 08:47:29;;;;;;;;;;;-1.70;99.90;;;;;;5133636;27;20373;-32
2024/01/17 08:49:56;;;;;;;;;;;-1.70;99.90;;;;;;5114172;27;20232;-32
2024/01/17 08:52:23;;;;;;;;;;;-1.70;99.90;;;;;;5114781;27;19924;-33
2024/01/17 08:54:50;;;;;;;;;;;-1.80;99.90;;;;;;5114781;27;19927;-32
2024/01/17 08:57:16;;;;;;;;;;;-1.70;99.90;;;;;;5114495;27;19924;-32
2024/01/17 08:59:44;;;;;;;;;;;-1.70;99.90;;;;;;5114799;27;20295;-32
2024/01/17 09:02:11;;;;;;;;;;;-1.70;99.90;;;;;;5133122;27;19927;-31
2024/01/17 09:04:38;;;;;;;;;;;-1.70;99.90;;;;;;5131942;27;20387;-32
2024/01/17 09:07:04;;;;;;;;;;;-1.70;99.90;;;;;;5114847;28;19923;-32
2024/01/17 09:09:31;;;;;;;;;;;-1.60;99.90;;;;;;5115108;27;19927;-31
2024/01/17 09:11:57;;;;;;;;;;;-1.60;99.90;;;;;;5115106;27;19993;-33
2024/01/17 09:14:24;;;;;;;;;;;-1.60;99.90;;;;;;5114919;28;20158;-32
2024/01/17 09:16:52;;;;;;;;;;;-1.60;99.90;;;;;;5114617;28;19924;-31
2024/01/17 09:19:20;;;;;;;;;;;-1.50;99.90;;;;;;5132037;27;19935;-32
2024/01/17 09:21:47;;;;;;;;;;;-1.50;99.90;;;;;;5114448;28;19958;-31
2024/01/17 09:24:13;;;;;;;;;;;-1.50;99.90;;;;;;5113693;28;19976;-32
2024/01/17 09:26:40;;;;;;;;;;;-1.40;99.90;;;;;;5132098;28;19927;-33
2024/01/17 09:29:07;;;;;;;;;;;-1.30;99.90;;;;;;5094422;28;19988;-33
2024/01/17 09:31:33;;;;;;;;;;;-1.40;99.90;;;;;;5112259;28;19976;-32
2024/01/17 09:34:01;;;;;;;;;;;-1.30;99.90;;;;;;5097232;28;19984;-31
2024/01/17 09:36:28;;;;;;;;;;;-1.30;99.90;;;;;;5132560;28;19927;-31
2024/01/17 09:38:54;;;;;;;;;;;-1.30;99.90;;;;;;5133012;28;19923;-32
2024/01/17 09:41:21;;;;;;;;;;;-1.30;99.90;;;;;;5133047;28;19923;-32
2024/01/17 09:43:48;;;;;;;;;;;-1.20;99.90;;;;;;5114423;28;19945;-33
2024/01/17 09:46:14;;;;;;;;;;;-1.10;99.90;;;;;;5114222;28;19927;-32
2024/01/17 09:48:41;;;;;;;;;;;-1.10;99.90;;;;;;5131253;28;19927;-32
2024/01/17 09:51:10;;;;;;;;;;;-1.10;99.90;;;;;;5112781;28;19970;-32
2024/01/17 09:53:37;;;;;;;;;;;-1.00;99.90;;;;;;5116840;27;20010;-31
2024/01/17 09:56:04;;;;;;;;;;;-1.00;99.90;;;;;;5118308;27;19930;-31
2024/01/17 09:58:32;;;;;;;;;;;-0.90;99.90;;;;;;5118446;27;19923;-32
2024/01/17 10:00:59;;;;;;;;;;;-0.90;99.90;;;;;;5117254;27;19924;-31
2024/01/17 10:03:26;;;;;;;;;;;-0.90;99.90;;;;;;5118461;27;19923;-33
2024/01/17 10:05:53;;;;;;;;;;;-0.90;99.90;;;;;;5118430;27;20279;-33
2024/01/17 10:08:21;;;;;;;;;;;-0.90;99.90;;;;;;5136556;27;19927;-31
2024/01/17 10:10:48;;;;;;;;;;;-0.80;99.90;;;;;;5117395;27;19923;-32
2024/01/17 10:13:14;;;;;;;;;;;-0.80;99.90;;;;;;5118530;27;19927;-32
2024/01/17 10:15:42;;;;;;;;;;;-0.80;99.90;;;;;;5134360;27;19992;-31
2024/01/17 10:18:09;;;;;;;;;;;-0.70;99.90;;;;;;5117675;27;20455;-31
2024/01/17 10:20:36;;;;;;;;;;;-0.70;99.90;;;;;;5117536;27;19959;-32
2024/01/17 10:23:03;;;;;;;;;;;-0.70;99.90;;;;;;5136514;27;19923;-32
2024/01/17 10:25:34;;;;;;;;;;;-0.70;99.90;;;;;;5118028;27;19939;-33
2024/01/17 10:28:01;;;;;;;;;;;-0.60;99.90;;;;;;5116509;27;20399;-32
2024/01/17 10:30:27;;;;;;;;;;;-0.60;99.90;;;;;;5115676;27;19958;-31
2024/01/17 10:32:54;;;;;;;;;;;-0.60;99.90;;;;;;5136141;27;19931;-31
2024/01/17 10:35:23;;;;;;;;;;;-0.60;99.90;;;;;;5117662;27;19923;-32
2024/01/17 10:37:50;;;;;;;;;;;-0.50;99.90;;;;;;5117627;27;19927;-31
2024/01/17 10:40:17;;;;;;;;;;;-0.50;99.90;;;;;;5117790;27;19927;-31
2024/01/17 10:42:46;;;;;;;;;;;-0.50;99.90;;;;;;5118067;27;19931;-31
2024/01/17 10:45:19;;;;;;;;;;;-0.50;99.90;;;;;;5117144;27;19923;-32
2024/01/17 10:47:46;;;;;;;;;;;-0.40;99.90;;;;;;5114832;27;19930;-33
2024/01/17 10:50:12;;;;;;;;;;;-0.40;99.90;;;;;;5117694;27;20307;-32
2024/01/17 10:52:40;;;;;;;;;;;-0.40;99.90;;;;;;5136195;27;19927;-31
2024/01/17 10:55:08;;;;;;;;;;;-0.40;99.90;;;;;;5135785;27;19976;-31
2024/01/17 10:57:35;;;;;;;;;;;-0.40;99.90;;;;;;5135280;27;19923;-32
2024/01/17 11:00:04;;;;;;;;;;;-0.40;99.90;;;;;;5115434;27;19927;-32
2024/01/17 11:02:30;;;;;;;;;;;-0.40;99.90;;;;;;5135724;27;20283;-31
2024/01/17 11:04:58;;;;;;;;;;;-0.40;99.90;;;;;;5135644;27;20031;-31
2024/01/17 11:07:25;;;;;;;;;;;-0.30;99.90;;;;;;5116912;27;19927;-34
2024/01/17 11:09:52;;;;;;;;;;;-0.30;99.90;;;;;;5117325;27;19957;-33
2024/01/17 11:12:19;;;;;;;;;;;-0.30;99.90;;;;;;5117117;27;20336;-32
2024/01/17 11:14:46;;;;;;;;;;;-0.20;99.90;;;;;;5116007;27;19980;-33
2024/01/17 11:17:13;;;;;;;;;;;-0.20;99.90;;;;;;5116118;27;19939;-31
2024/01/17 11:19:40;;;;;;;;;;;-0.20;99.90;;;;;;5116958;27;19976;-32
2024/01/17 11:22:07;;;;;;;;;;;-0.10;99.90;;;;;;5116856;27;19988;-33
2024/01/17 11:24:35;;;;;;;;;;;-0.10;99.90;;;;;;5115140;27;20495;-32
2024/01/17 11:27:07;;;;;;;;;;;-0.10;99.90;;;;;;5120314;27;19923;-32
2024/01/17 11:29:36;;;;;;;;;;;0.00;99.90;;;;;;5116477;27;20423;-33
2024/01/17 11:32:04;;;;;;;;;;;0.00;99.90;;;;;;5135269;27;19930;-31
2024/01/17 11:34:32;;;;;;;;;;;0.00;99.90;;;;;;5117024;27;19976;-32
2024/01/17 11:36:59;;;;;;;;;;;0.00;99.90;;;;;;5115395;27;20344;-32
2024/01/17 11:39:26;;;;;;;;;;;0.00;99.90;;;;;;5115542;27;19944;-31
2024/01/17 11:41:53;;;;;;;;;;;0.10;99.90;;;;;;5116476;27;19929;-33
2024/01/17 11:44:19;;;;;;;;;;;0.10;99.90;;;;;;5116814;27;19927;-32
2024/01/17 11:46:48;;;;;;;;;;;0.10;99.90;;;;;;5134596;27;19923;-32
2024/01/17 11:49:15;;;;;;;;;;;0.10;99.90;;;;;;5134176;27;19968;-32
2024/01/17 11:51:46;;;;;;;;;;;0.20;99.90;;;;;;5133828;27;19924;-32
2024/01/17 11:54:12;;;;;;;;;;;0.20;99.90;;;;;;5133414;27;20345;-33
2024/01/17 11:56:39;;;;;;;;;;;0.30;99.90;;;;;;5116267;27;19924;-32
2024/01/17 11:59:06;;;;;;;;;;;0.20;99.90;;;;;;5115828;27;20428;-32
2024/01/17 12:01:39;;;;;;;;;;;0.20;99.90;;;;;;5108032;27;19923;-32
2024/01/17 12:04:10;;;;;;;;;;;0.20;99.90;;;;;;5115925;27;19924;-32
2024/01/17 12:06:37;;;;;;;;;;;0.30;99.90;;;;;;5114915;27;19924;-34
2024/01/17 12:09:08;;;;;;;;;;;0.40;99.90;;;;;;5114599;27;19923;-33
2024/01/17 12:11:34;;;;;;;;;;;0.30;99.90;;;;;;5132955;27;20329;-32
2024/01/17 12:14:07;;;;;;;;;;;0.40;99.90;;;;;;5133369;27;19977;-31
2024/01/17 12:16:33;;;;;;;;;;;0.40;99.90;;;;;;5114321;27;19924;-33
2024/01/17 12:19:00;;;;;;;;;;;0.50;99.90;;;;;;5114823;27;19972;-33
2024/01/17 12:21:27;;;;;;;;;;;0.40;99.90;;;;;;5131973;27;20272;-33
2024/01/17 12:23:54;;;;;;;;;;;0.50;99.90;;;;;;5113293;27;19954;-34
2024/01/17 12:26:21;;;;;;;;;;;0.50;99.90;;;;;;5114076;27;19924;-34
2024/01/17 12:28:48;;;;;;;;;;;0.50;99.90;;;;;;5114000;27;19972;-33
2024/01/17 12:31:16;;;;;;;;;;;0.50;99.90;;;;;;5133098;27;19923;-32
2024/01/17 12:33:42;;;;;;;;;;;0.40;99.90;;;;;;5126135;27;19934;-32
2024/01/17 12:36:09;;;;;;;;;;;0.50;99.90;;;;;;5132602;27;19924;-32
2024/01/17 12:38:36;;;;;;;;;;;0.50;99.90;;;;;;5113023;27;20383;-34
2024/01/17 12:41:04;;;;;;;;;;;0.50;99.90;;;;;;5133165;27;19931;-32
2024/01/17 12:43:33;;;;;;;;;;;0.60;99.90;;;;;;5114160;27;20403;-32
2024/01/17 12:46:00;;;;;;;;;;;0.60;99.90;;;;;;5114944;27;19924;-33
2024/01/17 12:48:27;;;;;;;;;;;0.60;99.90;;;;;;5111499;27;20006;-31
2024/01/17 12:50:54;;;;;;;;;;;0.60;99.90;;;;;;5114931;27;19972;-33
2024/01/17 12:53:23;;;;;;;;;;;0.70;99.90;;;;;;5114404;27;19984;-32
2024/01/17 12:55:50;;;;;;;;;;;0.70;99.90;;;;;;5132188;27;19935;-32
2024/01/17 12:58:17;;;;;;;;;;;0.70;99.90;;;;;;5114851;27;19923;-33
2024/01/17 13:00:47;;;;;;;;;;;0.70;99.90;;;;;;5114877;27;19923;-32
2024/01/17 13:03:14;;;;;;;;;;;0.70;99.90;;;;;;5128888;27;20420;-32
2024/01/17 13:05:40;;;;;;;;;;;0.70;99.90;;;;;;5115259;27;20260;-33
2024/01/17 13:08:11;;;;;;;;;;;0.80;99.90;;;;;;5114723;27;19924;-32
2024/01/17 13:10:38;;;;;;;;;;;0.70;99.90;;;;;;5107288;27;20297;-32
2024/01/17 13:13:05;;;;;;;;;;;0.80;99.90;;;;;;5114899;27;19923;-31
2024/01/17 13:15:32;;;;;;;;;;;0.80;99.90;;;;;;5114408;27;19970;-32
2024/01/17 13:18:03;;;;;;;;;;;0.70;99.90;;;;;;5111371;28;19927;-32
2024/01/17 13:20:30;;;;;;;;;;;0.80;99.90;;;;;;5115408;28;19924;-32
2024/01/17 13:22:57;;;;;;;;;;;0.80;99.90;;;;;;5132138;28;20378;-32
2024/01/17 13:25:24;;;;;;;;;;;0.80;99.90;;;;;;5132071;28;19930;-34
2024/01/17 13:27:54;;;;;;;;;;;0.80;99.90;;;;;;5116053;27;19924;-32
2024/01/17 13:30:21;;;;;;;;;;;0.80;99.90;;;;;;5135413;27;20382;-31
2024/01/17 13:32:47;;;;;;;;;;;0.80;99.90;;;;;;5117493;27;20359;-32
2024/01/17 13:35:16;;;;;;;;;;;0.70;99.90;;;;;;5117196;27;19928;-32
2024/01/17 13:37:43;;;;;;;;;;;0.70;99.90;;;;;;5117163;27;20026;-32
2024/01/17 13:40:11;;;;;;;;;;;0.80;99.90;;;;;;5118727;27;19924;-33
2024/01/17 13:42:37;;;;;;;;;;;0.80;99.90;;;;;;5118279;27;19923;-33
2024/01/17 13:45:08;;;;;;;;;;;0.80;99.90;;;;;;5116478;27;20336;-33
2024/01/17 13:47:34;;;;;;;;;;;0.70;99.90;;;;;;5136024;27;19923;-31
2024/01/17 13:50:10;;;;;;;;;;;0.70;99.90;;;;;;5116886;27;19931;-31
2024/01/17 13:52:43;;;;;;;;;;;0.70;99.90;;;;;;5107987;27;20341;-33
2024/01/17 13:55:09;;;;;;;;;;;0.70;99.90;;;;;;5136473;27;19931;-32
2024/01/17 13:57:37;;;;;;;;;;;0.80;99.90;;;;;;5117332;27;20280;-34
2024/01/17 14:00:04;;;;;;;;;;;0.70;99.90;;;;;;5133880;27;19927;-32
2024/01/17 14:02:30;;;;;;;;;;;0.70;99.90;;;;;;5115915;27;19928;-33
2024/01/17 14:04:57;;;;;;;;;;;0.70;99.90;;;;;;5117552;27;19964;-32
2024/01/17 14:07:24;;;;;;;;;;;0.70;99.90;;;;;;5117950;27;19924;-33
2024/01/17 14:09:52;;;;;;;;;;;0.70;99.90;;;;;;5136191;27;19928;-32
2024/01/17 14:12:19;;;;;;;;;;;0.70;99.90;;;;;;5117949;27;19923;-32
2024/01/17 14:14:46;;;;;;;;;;;0.60;99.90;;;;;;5115842;27;20007;-32
2024/01/17 14:17:13;;;;;;;;;;;0.60;99.90;;;;;;5117241;27;19931;-32